createdAt,value
2018-08-18T00:00:25.152Z,17.63
2018-08-18T00:02:55.270Z,12.87
2018-08-18T00:05:24.601Z,14.43
2018-08-18T00:07:53.850Z,10.90
2018-08-18T00:10:23.508Z,14.83
2018-08-18T00:12:52.732Z,11.67
2018-08-18T00:15:21.889Z,20.37
2018-08-18T00:17:51.021Z,12.53
2018-08-18T00:20:23.630Z,15.10
2018-08-18T00:22:52.890Z,14.30
2018-08-18T00:25:21.905Z,18.60
2018-08-18T00:27:52.040Z,20.93
2018-08-18T00:30:28.200Z,21.73
2018-08-18T00:32:57.293Z,19.13
2018-08-18T00:35:26.354Z,18.33
2018-08-18T00:37:55.493Z,14.00
2018-08-18T00:40:24.597Z,20.30
2018-08-18T00:42:53.765Z,19.93
2018-08-18T00:45:22.924Z,17.37
2018-08-18T00:47:51.866Z,14.50
2018-08-18T00:50:35.203Z,15.80
2018-08-18T00:53:05.267Z,17.00
2018-08-18T00:55:35.139Z,18.30
2018-08-18T00:58:04.686Z,17.30
2018-08-18T01:00:34.103Z,14.30
2018-08-18T01:03:03.234Z,15.53
2018-08-18T01:05:32.394Z,16.20
2018-08-18T01:08:01.376Z,22.00
2018-08-18T01:10:30.319Z,18.73
2018-08-18T01:12:59.520Z,24.13
2018-08-18T01:15:28.914Z,19.17
2018-08-18T01:17:57.941Z,13.57
2018-08-18T01:20:26.865Z,13.87
2018-08-18T01:23:00.535Z,17.97
2018-08-18T01:25:29.629Z,22.03
2018-08-18T01:27:59.796Z,15.67
2018-08-18T01:30:28.933Z,15.40
2018-08-18T01:32:58.070Z,15.87
2018-08-18T01:35:27.083Z,17.70
2018-08-18T01:37:56.185Z,17.40
2018-08-18T01:40:25.301Z,20.70
2018-08-18T01:42:54.544Z,19.93
2018-08-18T01:45:23.614Z,15.40
2018-08-18T01:47:52.629Z,19.10
2018-08-18T01:50:21.669Z,14.57
2018-08-18T01:52:51.037Z,18.73
2018-08-18T01:55:20.047Z,21.13
2018-08-18T01:57:49.042Z,16.60
2018-08-18T02:00:23.165Z,15.00
2018-08-18T02:02:52.164Z,13.53
2018-08-18T02:05:21.184Z,13.93
2018-08-18T02:07:50.129Z,12.40
2018-08-18T02:10:19.080Z,18.50
2018-08-18T02:13:00.494Z,11.67
2018-08-18T02:15:29.798Z,11.87
2018-08-18T02:17:58.775Z,11.47
2018-08-18T02:20:27.795Z,20.30
2018-08-18T02:22:56.981Z,15.83
2018-08-18T02:25:26.021Z,16.43
2018-08-18T02:27:55.290Z,20.97
2018-08-18T02:30:24.564Z,17.50
2018-08-18T02:32:53.655Z,16.50
2018-08-18T02:35:22.939Z,18.70
2018-08-18T02:37:52.029Z,15.20
2018-08-18T02:40:21.101Z,14.90
2018-08-18T02:42:50.215Z,16.77
2018-08-18T02:45:19.181Z,11.80
2018-08-18T02:47:49.171Z,19.60
2018-08-18T02:50:18.181Z,13.23
2018-08-18T02:52:47.173Z,15.40
2018-08-18T02:55:16.140Z,13.83
2018-08-18T02:57:45.193Z,15.23
2018-08-18T03:00:23.617Z,14.17
2018-08-18T03:02:52.603Z,15.67
2018-08-18T03:05:21.542Z,14.27
2018-08-18T03:07:51.638Z,16.07
2018-08-18T03:10:23.376Z,22.90
2018-08-18T03:12:57.349Z,18.87
2018-08-18T03:16:11.470Z,18.90
2018-08-18T03:18:44.953Z,19.80
2018-08-18T03:21:14.059Z,19.73
2018-08-18T03:23:54.336Z,17.00
2018-08-18T03:26:28.967Z,20.20
2018-08-18T03:28:57.912Z,16.27
2018-08-18T03:31:30.933Z,20.63
2018-08-18T03:34:00.011Z,22.20
2018-08-18T03:36:30.903Z,23.20
2018-08-18T03:39:00.249Z,17.57
2018-08-18T03:41:30.029Z,21.00
2018-08-18T03:43:59.173Z,19.10
2018-08-18T03:46:28.170Z,21.50
2018-08-18T03:48:57.252Z,20.90
2018-08-18T03:51:31.831Z,18.30
2018-08-18T03:54:01.657Z,18.30
2018-08-18T03:56:30.743Z,20.70
2018-08-18T03:59:00.315Z,25.33
2018-08-18T04:01:48.670Z,18.53
2018-08-18T04:04:18.649Z,17.63
2018-08-18T04:06:49.064Z,15.43
2018-08-18T04:09:24.643Z,16.83
2018-08-18T04:11:53.917Z,17.83
2018-08-18T04:14:44.101Z,18.03
2018-08-18T04:17:24.968Z,18.57
2018-08-18T04:19:53.960Z,18.37
2018-08-18T04:22:24.608Z,17.53
2018-08-18T04:24:56.039Z,18.20
2018-08-18T04:27:38.269Z,17.07
2018-08-18T04:30:10.339Z,18.33
2018-08-18T04:32:53.296Z,19.93
2018-08-18T04:35:24.410Z,21.10
2018-08-18T04:37:54.338Z,18.13
2018-08-18T04:40:23.750Z,21.63
2018-08-18T04:42:52.838Z,18.70
2018-08-18T04:45:22.467Z,18.90
2018-08-18T04:47:51.580Z,27.33
2018-08-18T04:50:21.233Z,18.00
2018-08-18T04:52:51.362Z,21.03
2018-08-18T04:55:20.784Z,22.43
2018-08-18T04:57:49.795Z,21.07
2018-08-18T05:00:18.758Z,18.83
2018-08-18T05:02:56.759Z,21.77
2018-08-18T05:05:29.676Z,21.73
2018-08-18T05:08:01.113Z,20.90
2018-08-18T05:10:30.341Z,20.20
2018-08-18T05:12:59.296Z,21.73
2018-08-18T05:15:28.483Z,21.33
2018-08-18T05:17:57.438Z,18.70
2018-08-18T05:20:27.276Z,27.70
2018-08-18T05:23:10.812Z,23.80
2018-08-18T05:25:41.155Z,26.00
2018-08-18T05:28:10.281Z,23.97
2018-08-18T05:30:39.293Z,24.63
2018-08-18T05:33:08.668Z,22.50
2018-08-18T05:35:37.883Z,20.83
2018-08-18T05:38:07.009Z,21.40
2018-08-18T05:40:35.977Z,19.53
2018-08-18T05:43:04.964Z,21.60
2018-08-18T05:45:34.737Z,25.03
2018-08-18T05:48:04.886Z,17.70
2018-08-18T05:50:33.848Z,23.80
2018-08-18T05:53:21.064Z,22.30
2018-08-18T05:55:50.545Z,18.50
2018-08-18T05:58:19.560Z,19.10
2018-08-18T06:00:49.814Z,26.83
2018-08-18T06:03:20.505Z,21.00
2018-08-18T06:05:49.585Z,18.93
2018-08-18T06:08:18.393Z,26.43
2018-08-18T06:10:47.749Z,19.00
2018-08-18T06:13:22.692Z,25.23
2018-08-18T06:16:08.381Z,18.13
2018-08-18T06:18:38.686Z,27.80
2018-08-18T06:21:08.136Z,21.00
2018-08-18T06:23:38.356Z,19.03
2018-08-18T06:26:08.088Z,19.17
2018-08-18T06:28:37.194Z,23.97
2018-08-18T06:31:06.273Z,22.77
2018-08-18T06:33:36.722Z,24.90
2018-08-18T06:36:05.681Z,21.60
2018-08-18T06:38:34.841Z,17.30
2018-08-18T06:41:04.046Z,20.67
2018-08-18T06:43:34.041Z,16.63
2018-08-18T06:46:03.502Z,18.70
2018-08-18T06:48:34.183Z,17.97
2018-08-18T06:51:03.300Z,16.63
2018-08-18T06:53:37.882Z,13.80
2018-08-18T06:56:07.416Z,13.30
2018-08-18T06:58:36.736Z,15.63
2018-08-18T07:01:06.490Z,17.67
2018-08-18T07:03:38.496Z,13.13
2018-08-18T07:06:07.994Z,16.00
2018-08-18T07:08:42.429Z,12.90
2018-08-18T07:11:11.612Z,12.70
2018-08-18T07:13:41.391Z,11.33
2018-08-18T07:16:10.585Z,20.20
2018-08-18T07:18:39.686Z,20.50
2018-08-18T07:21:08.696Z,12.60
2018-08-18T07:23:37.691Z,12.50
2018-08-18T07:26:07.187Z,15.17
2018-08-18T07:28:36.329Z,12.47
2018-08-18T07:31:05.353Z,11.10
2018-08-18T07:33:34.465Z,13.27
2018-08-18T07:36:03.537Z,10.03
2018-08-18T07:38:32.730Z,19.20
2018-08-18T07:41:01.888Z,9.50
2018-08-18T07:43:33.121Z,10.10
2018-08-18T07:46:04.566Z,20.93
2018-08-18T07:48:33.623Z,10.77
2018-08-18T07:51:02.766Z,13.47
2018-08-18T07:53:31.911Z,15.37
2018-08-18T07:56:00.926Z,17.90
2018-08-18T07:58:30.046Z,12.00
2018-08-18T08:00:59.914Z,11.23
2018-08-18T08:03:29.033Z,9.93
2018-08-18T08:05:58.054Z,13.03
2018-08-18T08:08:33.765Z,10.50
2018-08-18T08:11:06.948Z,14.43
2018-08-18T08:13:36.045Z,12.73
2018-08-18T08:16:05.149Z,12.10
2018-08-18T08:18:34.224Z,15.87
2018-08-18T08:21:03.373Z,20.20
2018-08-18T08:23:32.540Z,11.17
2018-08-18T08:26:01.492Z,9.47
2018-08-18T08:28:30.536Z,11.33
2018-08-18T08:30:59.900Z,10.47
2018-08-18T08:33:36.357Z,11.40
2018-08-18T08:36:08.555Z,19.67
2018-08-18T08:38:49.978Z,10.50
2018-08-18T08:41:19.035Z,8.33
2018-08-18T08:43:48.245Z,13.23
2018-08-18T08:46:17.386Z,13.50
2018-08-18T08:48:53.306Z,10.53
2018-08-18T08:51:22.647Z,12.13
2018-08-18T08:53:52.687Z,13.73
2018-08-18T08:56:38.691Z,13.20
2018-08-18T08:59:07.932Z,15.40
2018-08-18T09:01:36.939Z,9.97
2018-08-18T09:04:05.963Z,12.03
2018-08-18T09:06:35.692Z,14.53
2018-08-18T09:09:07.246Z,13.57
2018-08-18T09:11:36.505Z,8.87
2018-08-18T09:14:07.349Z,9.67
2018-08-18T09:16:36.309Z,9.20
2018-08-18T09:19:06.349Z,13.57
2018-08-18T09:21:46.269Z,11.97
2018-08-18T09:24:16.575Z,16.17
2018-08-18T09:26:51.376Z,14.37
2018-08-18T09:29:22.039Z,9.97
2018-08-18T09:31:52.109Z,9.80
2018-08-18T09:34:21.921Z,15.00
2018-08-18T09:36:51.863Z,9.67
2018-08-18T09:39:28.172Z,14.27
2018-08-18T09:41:57.237Z,8.03
2018-08-18T09:44:31.709Z,7.70
2018-08-18T09:47:01.294Z,8.47
2018-08-18T09:49:31.353Z,11.20
2018-08-18T09:52:01.865Z,8.57
2018-08-18T09:54:32.001Z,7.07
2018-08-18T09:57:01.066Z,9.63
2018-08-18T09:59:30.566Z,7.03
2018-08-18T10:01:59.635Z,13.63
2018-08-18T10:04:28.834Z,9.67
2018-08-18T10:06:57.977Z,11.40
2018-08-18T10:09:26.961Z,9.10
2018-08-18T10:11:55.937Z,9.60
2018-08-18T10:14:25.023Z,11.57
2018-08-18T10:16:54.133Z,9.13
2018-08-18T10:19:23.132Z,9.53
2018-08-18T10:21:52.190Z,13.63
2018-08-18T10:24:21.273Z,12.97
2018-08-18T10:26:55.769Z,7.03
2018-08-18T10:29:25.539Z,10.10
2018-08-18T10:31:55.525Z,13.00
2018-08-18T10:34:26.596Z,11.07
2018-08-18T10:37:04.263Z,5.67
2018-08-18T10:39:33.437Z,7.53
2018-08-18T10:42:05.993Z,8.20
2018-08-18T10:44:35.117Z,7.30
2018-08-18T10:47:19.286Z,7.50
2018-08-18T10:49:59.923Z,9.70
2018-08-18T10:52:41.165Z,7.47
2018-08-18T10:55:11.333Z,8.27
2018-08-18T10:57:52.703Z,7.33
2018-08-18T11:00:23.281Z,5.90
2018-08-18T11:02:53.555Z,7.63
2018-08-18T11:05:23.378Z,7.13
2018-08-18T11:07:58.725Z,9.10
2018-08-18T11:10:29.675Z,12.47
2018-08-18T11:12:58.785Z,10.53
2018-08-18T11:15:28.042Z,9.47
2018-08-18T11:17:57.536Z,9.10
2018-08-18T11:20:28.151Z,7.80
2018-08-18T11:23:13.984Z,11.67
2018-08-18T11:25:45.572Z,10.80
2018-08-18T11:28:15.015Z,9.93
2018-08-18T11:30:44.111Z,9.30
2018-08-18T11:33:29.744Z,7.03
2018-08-18T11:35:58.731Z,8.40
2018-08-18T11:38:27.894Z,6.20
2018-08-18T11:40:57.073Z,10.00
2018-08-18T11:43:26.311Z,10.37
2018-08-18T11:45:55.284Z,10.57
2018-08-18T11:48:24.879Z,8.33
2018-08-18T11:50:54.977Z,7.53
2018-08-18T11:53:24.106Z,8.73
2018-08-18T11:55:53.241Z,8.70
2018-08-18T11:58:23.410Z,6.67
2018-08-18T12:00:55.609Z,6.13
2018-08-18T12:03:27.061Z,4.37
2018-08-18T12:06:01.673Z,8.17
2018-08-18T12:08:35.946Z,8.23
2018-08-18T12:11:07.456Z,7.73
2018-08-18T12:24:05.568Z,6.90
2018-08-18T12:26:34.540Z,6.67
2018-08-18T12:29:03.531Z,7.70
2018-08-18T12:31:32.540Z,6.77
2018-08-18T12:34:01.434Z,6.20
2018-08-18T12:36:30.402Z,11.67
2018-08-18T12:38:59.261Z,5.90
2018-08-18T12:41:28.107Z,7.23
2018-08-18T12:43:58.140Z,5.77
2018-08-18T12:46:35.375Z,8.53
2018-08-18T12:49:05.668Z,7.07
2018-08-18T12:51:34.732Z,5.70
2018-08-18T12:54:03.720Z,6.57
2018-08-18T12:56:32.895Z,7.43
2018-08-18T12:59:01.808Z,5.60
2018-08-18T13:01:41.972Z,6.50
2018-08-18T13:04:15.620Z,5.77
2018-08-18T13:06:48.823Z,8.73
2018-08-18T13:09:26.252Z,5.43
2018-08-18T13:11:56.573Z,7.73
2018-08-18T13:14:26.966Z,12.13
2018-08-18T13:16:55.916Z,10.90
2018-08-18T13:19:27.625Z,9.53
2018-08-18T13:21:56.524Z,4.93
2018-08-18T13:24:25.574Z,9.40
2018-08-18T13:26:54.540Z,8.30
2018-08-18T13:29:23.552Z,3.80
2018-08-18T13:31:52.496Z,3.30
2018-08-18T13:34:21.428Z,6.13
2018-08-18T13:36:50.388Z,17.37
2018-08-18T13:39:20.611Z,14.10
2018-08-18T13:41:50.320Z,8.13
2018-08-18T13:44:37.192Z,6.27
2018-08-18T13:47:06.159Z,7.13
2018-08-18T13:49:35.248Z,8.00
2018-08-18T13:52:04.264Z,7.63
2018-08-18T13:54:33.836Z,6.57
2018-08-18T13:57:02.829Z,8.80
2018-08-18T13:59:39.785Z,6.43
2018-08-18T14:02:09.524Z,4.43
2018-08-18T14:04:41.199Z,9.00
2018-08-18T14:07:10.442Z,7.50
2018-08-18T14:09:42.028Z,7.33
2018-08-18T14:12:16.321Z,6.63
2018-08-18T14:14:45.929Z,9.60
2018-08-18T14:17:15.371Z,5.57
2018-08-18T14:19:44.508Z,7.63
2018-08-18T14:22:13.764Z,7.80
2018-08-18T14:24:42.648Z,5.73
2018-08-18T14:27:13.384Z,8.03
2018-08-18T14:29:42.444Z,6.90
2018-08-18T14:32:16.712Z,10.63
2018-08-18T14:34:56.368Z,3.93
2018-08-18T14:37:25.336Z,8.03
2018-08-18T14:39:54.344Z,5.87
2018-08-18T14:42:23.303Z,8.30
2018-08-18T14:44:55.014Z,9.93
2018-08-18T14:47:23.941Z,13.60
2018-08-18T14:50:26.216Z,6.30
2018-08-18T14:52:55.118Z,10.20
2018-08-18T14:55:24.005Z,10.43
2018-08-18T14:57:59.476Z,7.13
2018-08-18T15:00:28.582Z,14.57
2018-08-18T15:02:57.592Z,7.30
2018-08-18T15:05:26.844Z,6.73
2018-08-18T15:07:57.503Z,9.27
2018-08-18T15:10:41.209Z,5.60
2018-08-18T15:13:10.844Z,11.27
2018-08-18T15:15:39.921Z,8.47
2018-08-18T15:18:11.932Z,7.47
2018-08-18T15:20:41.528Z,14.47
2018-08-18T15:23:11.245Z,8.57
2018-08-18T15:25:40.931Z,10.47
2018-08-18T15:28:11.021Z,8.37
2018-08-18T15:30:41.153Z,9.50
2018-08-18T15:33:11.218Z,13.17
2018-08-18T15:35:41.084Z,14.93
2018-08-18T15:38:10.934Z,11.10
2018-08-18T15:40:40.029Z,7.07
2018-08-18T15:43:08.993Z,9.33
2018-08-18T15:45:57.554Z,8.13
2018-08-18T15:48:26.480Z,11.90
2018-08-18T15:50:55.417Z,10.73
2018-08-18T15:53:51.483Z,13.60
2018-08-18T15:56:21.222Z,13.67
2018-08-18T15:58:50.721Z,11.90
2018-08-18T16:01:22.209Z,11.33
2018-08-18T16:03:51.624Z,8.17
2018-08-18T16:06:20.539Z,9.13
2018-08-18T16:08:50.003Z,8.27
2018-08-18T16:11:18.916Z,11.27
2018-08-18T16:13:47.998Z,12.53
2018-08-18T16:16:16.888Z,9.93
2018-08-18T16:18:46.123Z,9.00
2018-08-18T16:21:20.350Z,10.57
2018-08-18T16:23:49.347Z,12.23
2018-08-18T16:26:18.383Z,7.43
2018-08-18T16:28:47.316Z,7.63
2018-08-18T16:31:16.260Z,10.60
2018-08-18T16:33:45.219Z,10.37
2018-08-18T16:36:14.248Z,11.87
2018-08-18T16:38:43.309Z,9.00
2018-08-18T16:41:12.255Z,8.17
2018-08-18T16:43:41.195Z,12.47
2018-08-18T16:46:24.265Z,14.03
2018-08-18T16:48:53.648Z,8.83
2018-08-18T16:51:22.785Z,13.23
2018-08-18T16:53:51.695Z,17.60
2018-08-18T16:56:22.513Z,11.47
2018-08-18T16:58:52.666Z,10.40
2018-08-18T17:01:22.125Z,10.10
2018-08-18T17:03:51.118Z,14.60
2018-08-18T17:06:20.102Z,11.30
2018-08-18T17:08:49.032Z,17.47
2018-08-18T17:11:17.932Z,11.17
2018-08-18T17:13:46.850Z,11.07
2018-08-18T17:16:15.772Z,11.00
2018-08-18T17:18:44.887Z,16.63
2018-08-18T17:21:14.464Z,12.30
2018-08-18T17:23:43.435Z,11.27
2018-08-18T17:26:12.256Z,16.57
2018-08-18T17:28:41.159Z,9.10
2018-08-18T17:31:10.188Z,15.63
2018-08-18T17:33:39.150Z,13.27
2018-08-18T17:36:08.151Z,15.47
2018-08-18T17:38:37.040Z,13.00
2018-08-18T17:41:05.949Z,10.23
2018-08-18T17:43:34.916Z,17.70
2018-08-18T17:46:04.627Z,17.70
2018-08-18T17:48:38.917Z,19.43
2018-08-18T17:51:07.815Z,13.90
2018-08-18T17:53:36.704Z,16.87
2018-08-18T17:56:05.742Z,13.37
2018-08-18T17:58:34.704Z,15.80
2018-08-18T18:01:05.885Z,15.93
2018-08-18T18:03:34.781Z,13.90
2018-08-18T18:06:03.827Z,17.67
2018-08-18T18:08:32.617Z,22.63
2018-08-18T18:11:01.517Z,17.97
2018-08-18T18:13:30.569Z,17.70
2018-08-18T18:15:59.481Z,17.30
2018-08-18T18:18:34.580Z,18.57
2018-08-18T18:21:03.508Z,17.90
2018-08-18T18:23:32.421Z,17.20
2018-08-18T18:26:01.733Z,22.00
2018-08-18T18:28:30.716Z,18.77
2018-08-18T18:30:59.740Z,16.23
2018-08-18T18:33:28.783Z,17.80
2018-08-18T18:35:57.648Z,22.50
2018-08-18T18:38:26.552Z,20.87
2018-08-18T18:40:55.521Z,23.17
2018-08-18T18:43:24.479Z,18.20
2018-08-18T18:45:53.559Z,20.40
2018-08-18T18:48:22.459Z,20.53
2018-08-18T18:50:51.400Z,17.43
2018-08-18T18:53:20.353Z,26.00
2018-08-18T18:55:53.584Z,18.03
2018-08-18T18:58:22.503Z,19.63
2018-08-18T19:00:55.952Z,25.00
2018-08-18T19:03:24.972Z,17.07
2018-08-18T19:05:53.852Z,18.47
2018-08-18T19:08:22.723Z,19.23
2018-08-18T19:10:51.651Z,21.33
2018-08-18T19:13:20.548Z,20.63
2018-08-18T19:15:49.488Z,21.17
2018-08-18T19:18:18.412Z,23.97
2018-08-18T19:20:47.347Z,15.40
2018-08-18T19:23:17.471Z,18.37
2018-08-18T19:25:47.776Z,18.20
2018-08-18T19:28:18.105Z,19.63
2018-08-18T19:30:46.999Z,25.43
2018-08-18T19:33:16.440Z,23.77
2018-08-18T19:35:46.508Z,28.30
2018-08-18T19:38:16.021Z,31.53
2018-08-18T19:40:46.249Z,60.20
2018-08-18T19:43:29.893Z,55.33
2018-08-18T19:45:58.821Z,44.07
2018-08-18T19:48:28.187Z,35.53
2018-08-18T19:51:03.841Z,31.50
2018-08-18T19:53:34.963Z,27.03
2018-08-18T19:56:08.412Z,42.53
2018-08-18T19:58:37.276Z,26.63
2018-08-18T20:01:06.500Z,29.00
2018-08-18T20:03:35.380Z,25.27
2018-08-18T20:06:08.519Z,26.00
2018-08-18T20:08:37.444Z,21.93
2018-08-18T20:11:06.394Z,26.63
2018-08-18T20:13:35.282Z,22.40
2018-08-18T20:16:04.483Z,24.60
2018-08-18T20:18:33.833Z,23.57
2018-08-18T20:21:02.691Z,22.33
2018-08-18T20:23:31.720Z,24.87
2018-08-18T20:26:01.375Z,23.20
2018-08-18T20:28:30.319Z,25.00
2018-08-18T20:30:59.244Z,25.23
2018-08-18T20:33:28.224Z,34.03
2018-08-18T20:35:57.243Z,26.60
2018-08-18T20:38:30.428Z,26.27
2018-08-18T20:40:59.432Z,23.63
2018-08-18T20:43:28.420Z,31.20
2018-08-18T20:45:57.414Z,25.20
2018-08-18T20:48:26.307Z,26.80
2018-08-18T20:50:55.188Z,29.37
2018-08-18T20:53:24.364Z,21.70
2018-08-18T20:55:56.167Z,24.90
2018-08-18T20:58:25.512Z,31.30
2018-08-18T21:00:54.424Z,28.03
2018-08-18T21:03:31.501Z,24.03
2018-08-18T21:06:00.492Z,23.90
2018-08-18T21:08:29.701Z,32.00
2018-08-18T21:10:58.743Z,22.83
2018-08-18T21:13:27.617Z,23.40
2018-08-18T21:15:56.453Z,31.13
2018-08-18T21:18:25.422Z,32.23
2018-08-18T21:20:54.333Z,25.47
2018-08-18T21:23:24.445Z,27.33
2018-08-18T21:25:53.920Z,27.63
2018-08-18T21:28:25.322Z,29.07
2018-08-18T21:30:54.227Z,33.03
2018-08-18T21:33:25.239Z,31.67
2018-08-18T21:35:54.423Z,23.87
2018-08-18T21:38:23.406Z,22.63
2018-08-18T21:40:52.304Z,20.07
2018-08-18T21:43:30.673Z,28.00
2018-08-18T21:45:59.813Z,31.60
2018-08-18T21:48:40.709Z,26.80
2018-08-18T21:51:09.660Z,31.00
2018-08-18T21:53:38.543Z,32.83
2018-08-18T21:56:07.444Z,27.67
2018-08-18T21:58:36.349Z,23.47
2018-08-18T22:01:23.035Z,25.17
2018-08-18T22:03:54.500Z,28.33
2018-08-18T22:06:23.523Z,25.37
2018-08-18T22:08:58.333Z,29.90
2018-08-18T22:11:27.253Z,32.67
2018-08-18T22:13:56.449Z,24.63
2018-08-18T22:16:25.369Z,28.33
2018-08-18T22:19:03.708Z,28.57
2018-08-18T22:21:32.999Z,25.23
2018-08-18T22:24:02.651Z,36.73
2018-08-18T22:26:31.576Z,28.37
2018-08-18T22:29:02.896Z,24.30
2018-08-18T22:31:32.395Z,26.00
2018-08-18T22:34:02.317Z,26.10
2018-08-18T22:36:32.383Z,30.70
2018-08-18T22:39:01.757Z,30.73
2018-08-18T22:41:30.772Z,28.63
2018-08-18T22:43:59.771Z,39.73
2018-08-18T22:46:29.815Z,23.23
2018-08-18T22:48:58.959Z,27.77
2018-08-18T22:51:27.940Z,25.47
2018-08-18T22:53:57.384Z,26.10
2018-08-18T22:56:31.949Z,27.50
2018-08-18T22:59:03.877Z,30.10
2018-08-18T23:01:33.945Z,36.33
2018-08-18T23:04:03.768Z,29.77
2018-08-18T23:06:34.753Z,35.13
2018-08-18T23:09:05.629Z,30.60
2018-08-18T23:11:34.532Z,32.40
2018-08-18T23:14:03.488Z,29.70
2018-08-18T23:16:32.464Z,25.00
2018-08-18T23:19:01.418Z,30.80
2018-08-18T23:21:30.960Z,29.03
2018-08-18T23:24:01.867Z,28.00
2018-08-18T23:26:30.794Z,32.20
2018-08-18T23:28:59.691Z,28.50
2018-08-18T23:31:28.648Z,30.53
2018-08-18T23:33:57.622Z,28.10
2018-08-18T23:36:26.552Z,30.40
2018-08-18T23:38:57.532Z,30.80
2018-08-18T23:41:26.634Z,33.83
2018-08-18T23:43:55.832Z,31.13
2018-08-18T23:46:25.083Z,28.60
2018-08-18T23:48:54.341Z,35.50
2018-08-18T23:51:28.519Z,37.90
2018-08-18T23:53:57.708Z,30.13
2018-08-18T23:56:28.639Z,34.13
2018-08-18T23:58:58.267Z,28.13
